Riga, Latvia
Current Conditions -  °F | °C
As of 2:50 AM on Monday 22 Dec 2014 (Local Time) from EVRA Reporting Station
Clear Clear  
Wind Chill: 22°   Ceiling: Unl
Heat Index: 28°   Visibility: 6mi
Dew Point: 28°   Wind: 6mph
Humidity: 100%   Direction: 210°SSW
Pressure: 29.56"   Gusts: NA
Location:  56.97°N, 24.13°E
Report Text: EVRA 212350Z 21005KT 180V250 CAVOK M02/M02 Q1001 R18/190095 NOSIG
Loading
Personal Weather Stations






























Interactive Weather Map New forecast layout! Learn more

10-Day Weather Forecast

Advertisements
Track Severe Weather on mobile